Terminal Aerodrome Forecast
Issued by NWS Kansas City/Pleasant Hill, MO

Home | Current Version | Previous Version | Text Only | Print | Product List | Glossary On
Versions: 1 2 3 4 5 6 7 8 9 10 11 12 13 14
875
FTUS43 KEAX 071120
TAFMCI
TAF
KMCI 071120Z 0712/0812 35006KT P6SM OVC080
     FM071500 34007KT P6SM OVC050
     FM072100 32009KT P6SM OVC100
     FM080300 31010KT P6SM SCT250=

USA.gov is the U.S. government's official web portal to all federal, state and local government web resources and services.